createdAt,value
2019-03-20T00:01:09.701Z,100156.08
2019-03-20T00:03:38.851Z,100148.55
2019-03-20T00:06:08.105Z,100143.29
2019-03-20T00:08:37.246Z,100139.49
2019-03-20T00:11:06.717Z,100147.83
2019-03-20T00:13:35.849Z,100141.00
2019-03-20T00:16:05.026Z,100145.95
2019-03-20T00:18:34.410Z,100148.02
2019-03-20T00:21:03.560Z,100147.77
2019-03-20T00:23:32.719Z,100159.67
2019-03-20T00:26:01.870Z,100159.92
2019-03-20T00:28:31.055Z,100164.38
2019-03-20T00:31:00.196Z,100161.39
2019-03-20T00:33:29.361Z,100149.42
2019-03-20T00:35:58.503Z,100157.73
2019-03-20T00:38:27.658Z,100156.06
2019-03-20T00:40:57.197Z,100151.47
2019-03-20T00:43:26.407Z,100158.14
2019-03-20T00:45:55.626Z,100162.03
2019-03-20T00:48:25.374Z,100157.36
2019-03-20T00:50:54.600Z,100158.77
2019-03-20T00:53:23.756Z,100158.20
2019-03-20T00:55:52.924Z,100163.92
2019-03-20T00:58:22.158Z,100152.60
2019-03-20T01:00:51.336Z,100149.83
2019-03-20T01:03:20.422Z,100157.59
2019-03-20T01:05:49.485Z,100149.89
2019-03-20T01:08:18.593Z,100140.97
2019-03-20T01:10:47.670Z,100145.55
2019-03-20T01:13:16.704Z,100150.40
2019-03-20T01:15:45.741Z,100148.75
2019-03-20T01:18:14.762Z,100147.09
2019-03-20T01:20:44.177Z,100134.12
2019-03-20T01:23:13.258Z,100133.98
2019-03-20T01:25:42.363Z,100138.53
2019-03-20T01:28:11.836Z,100142.97
2019-03-20T01:30:40.960Z,100142.47
2019-03-20T01:33:11.112Z,100149.41
2019-03-20T01:35:40.357Z,100150.36
2019-03-20T01:38:09.424Z,100151.91
2019-03-20T01:40:40.342Z,100146.08
2019-03-20T01:43:09.634Z,100149.89
2019-03-20T01:45:38.730Z,100150.95
2019-03-20T01:48:07.833Z,100152.42
2019-03-20T01:50:36.929Z,100157.81
2019-03-20T01:53:06.028Z,100155.33
2019-03-20T01:55:35.109Z,100145.36
2019-03-20T01:58:04.275Z,100150.17
2019-03-20T02:00:33.607Z,100154.11
2019-03-20T02:03:02.703Z,100156.83
2019-03-20T02:05:36.264Z,100161.77
2019-03-20T02:08:02.671Z,100161.30
2019-03-20T02:10:31.832Z,100159.81
2019-03-20T02:13:00.964Z,100150.98
2019-03-20T02:15:38.789Z,100163.39
2019-03-20T02:18:00.761Z,100169.81
2019-03-20T02:20:29.841Z,100162.48
2019-03-20T02:22:58.965Z,100164.07
2019-03-20T02:25:28.468Z,100170.55
2019-03-20T02:27:57.545Z,100166.42
2019-03-20T02:30:26.666Z,100173.36
2019-03-20T02:32:55.699Z,100177.51
2019-03-20T02:35:24.754Z,100175.25
2019-03-20T02:37:53.824Z,100174.28
2019-03-20T02:40:22.945Z,100170.33
2019-03-20T02:42:51.964Z,100169.22
2019-03-20T02:45:21.025Z,100173.23
2019-03-20T02:47:50.112Z,100165.19
2019-03-20T02:50:19.226Z,100165.98
2019-03-20T02:52:48.306Z,100169.18
2019-03-20T02:55:17.420Z,100175.08
2019-03-20T02:57:46.528Z,100171.83
2019-03-20T03:00:15.687Z,100167.91
2019-03-20T03:02:44.881Z,100168.60
2019-03-20T03:05:14.391Z,100175.00
2019-03-20T03:07:43.519Z,100177.75
2019-03-20T03:10:13.075Z,100179.42
2019-03-20T03:12:42.205Z,100178.04
2019-03-20T03:15:11.417Z,100174.28
2019-03-20T03:17:40.552Z,100177.09
2019-03-20T03:20:09.771Z,100174.84
2019-03-20T03:22:38.845Z,100180.13
2019-03-20T03:25:08.083Z,100178.20
2019-03-20T03:27:37.200Z,100185.05
2019-03-20T03:30:07.157Z,100173.81
2019-03-20T03:32:36.259Z,100172.45
2019-03-20T03:35:05.717Z,100179.03
2019-03-20T03:37:35.089Z,100179.25
2019-03-20T03:40:04.863Z,100182.28
2019-03-20T03:42:34.366Z,100181.50
2019-03-20T03:45:03.463Z,100180.48
2019-03-20T03:47:32.554Z,100180.11
2019-03-20T03:50:01.607Z,100186.97
2019-03-20T03:52:30.718Z,100190.27
2019-03-20T03:54:59.748Z,100193.41
2019-03-20T03:57:28.882Z,100202.28
2019-03-20T03:59:58.011Z,100193.11
2019-03-20T04:02:27.107Z,100190.34
2019-03-20T04:04:56.187Z,100200.86
2019-03-20T04:07:25.299Z,100199.25
2019-03-20T04:09:54.388Z,100198.20
2019-03-20T04:12:23.877Z,100193.20
2019-03-20T04:14:52.977Z,100199.66
2019-03-20T04:17:28.888Z,100200.66
2019-03-20T04:19:57.948Z,100200.38
2019-03-20T04:22:26.996Z,100195.06
2019-03-20T04:24:56.445Z,100200.37
2019-03-20T04:27:25.555Z,100197.90
2019-03-20T04:29:54.615Z,100197.90
2019-03-20T04:32:23.757Z,100202.06
2019-03-20T04:34:52.833Z,100200.67
2019-03-20T04:37:21.889Z,100205.14
2019-03-20T04:39:50.904Z,100204.34
2019-03-20T04:42:20.022Z,100204.34
2019-03-20T04:44:49.125Z,100200.57
2019-03-20T04:47:18.122Z,100205.17
2019-03-20T04:49:47.240Z,100204.58
2019-03-20T04:52:16.373Z,100203.86
2019-03-20T04:54:45.478Z,100197.87
2019-03-20T04:57:14.598Z,100199.67
2019-03-20T04:59:43.662Z,100195.99
2019-03-20T05:02:12.794Z,100198.69
2019-03-20T05:04:41.902Z,100197.30
2019-03-20T05:07:10.888Z,100200.48
2019-03-20T05:09:39.984Z,100201.83
2019-03-20T05:12:09.050Z,100207.03
2019-03-20T05:14:38.479Z,100211.42
2019-03-20T05:17:07.788Z,100211.91
2019-03-20T05:19:36.961Z,100218.83
2019-03-20T05:22:06.137Z,100218.00
2019-03-20T05:24:35.213Z,100230.39
2019-03-20T05:27:04.430Z,100233.97
2019-03-20T05:29:33.508Z,100228.80
2019-03-20T05:32:02.559Z,100231.36
2019-03-20T05:34:31.671Z,100226.69
2019-03-20T05:37:09.897Z,100233.08
2019-03-20T05:39:31.549Z,100228.97
2019-03-20T05:42:00.667Z,100232.34
2019-03-20T05:44:29.778Z,100229.37
2019-03-20T05:46:58.987Z,100240.66
2019-03-20T05:49:39.080Z,100235.28
2019-03-20T05:52:21.199Z,100237.83
2019-03-20T05:55:03.400Z,100241.70
2019-03-20T05:57:42.223Z,100250.97
2019-03-20T06:00:25.230Z,100245.62
2019-03-20T06:02:54.741Z,100250.61
2019-03-20T06:05:23.785Z,100252.62
2019-03-20T06:07:52.787Z,100252.52
2019-03-20T06:10:21.927Z,100251.23
2019-03-20T06:12:51.074Z,100256.55
2019-03-20T06:15:20.424Z,100261.14
2019-03-20T06:17:49.647Z,100259.22
2019-03-20T06:20:18.727Z,100257.28
2019-03-20T06:22:47.858Z,100257.28
2019-03-20T06:25:16.976Z,100273.91
2019-03-20T06:27:46.074Z,100272.49
2019-03-20T06:30:15.894Z,100280.89
2019-03-20T06:32:44.999Z,100282.12
2019-03-20T06:35:14.205Z,100285.41
2019-03-20T06:37:43.295Z,100287.94
2019-03-20T06:40:12.716Z,100294.13
2019-03-20T06:42:41.896Z,100293.58
2019-03-20T06:45:11.786Z,100292.14
2019-03-20T06:47:40.924Z,100298.89
2019-03-20T06:50:12.668Z,100297.08
2019-03-20T06:52:41.892Z,100290.46
2019-03-20T06:55:11.023Z,100297.91
2019-03-20T06:57:40.159Z,100293.34
2019-03-20T07:00:43.717Z,100290.55
2019-03-20T07:03:20.117Z,100294.86
2019-03-20T07:06:13.295Z,100296.37
2019-03-20T07:08:59.803Z,100296.59
2019-03-20T07:11:29.028Z,100298.88
2019-03-20T07:13:57.971Z,100298.52
2019-03-20T07:16:27.243Z,100299.28
2019-03-20T07:18:57.370Z,100301.86
2019-03-20T07:21:27.267Z,100305.22
2019-03-20T07:23:56.930Z,100301.45
2019-03-20T07:26:28.559Z,100298.16
2019-03-20T07:28:56.813Z,100301.20
2019-03-20T07:31:25.930Z,100292.91
2019-03-20T07:33:55.680Z,100293.09
2019-03-20T07:36:25.200Z,100303.67
2019-03-20T07:38:54.341Z,100304.42
2019-03-20T07:41:23.370Z,100312.75
2019-03-20T07:43:52.493Z,100308.20
2019-03-20T07:46:21.658Z,100309.52
2019-03-20T07:48:50.904Z,100313.77
2019-03-20T07:51:19.959Z,100306.56
2019-03-20T07:53:49.036Z,100306.75
2019-03-20T07:56:18.153Z,100311.37
2019-03-20T07:58:47.237Z,100307.13
2019-03-20T08:01:16.347Z,100312.84
2019-03-20T08:03:45.467Z,100307.03
2019-03-20T08:06:14.665Z,100314.13
2019-03-20T08:08:43.786Z,100307.36
2019-03-20T08:11:32.010Z,100307.19
2019-03-20T08:14:01.285Z,100303.97
2019-03-20T08:16:30.436Z,100317.92
2019-03-20T08:18:59.892Z,100318.52
2019-03-20T08:21:29.027Z,100318.38
2019-03-20T08:23:58.224Z,100316.40
2019-03-20T08:26:27.432Z,100322.37
2019-03-20T08:28:56.653Z,100325.06
2019-03-20T08:31:25.804Z,100325.52
2019-03-20T08:33:54.957Z,100327.64
2019-03-20T08:36:24.144Z,100329.06
2019-03-20T08:38:53.240Z,100324.30
2019-03-20T08:41:22.419Z,100317.14
2019-03-20T08:43:51.662Z,100318.79
2019-03-20T08:46:20.845Z,100321.14
2019-03-20T08:48:49.946Z,100325.27
2019-03-20T08:51:19.177Z,100334.67
2019-03-20T08:53:48.420Z,100331.02
2019-03-20T08:56:17.614Z,100325.31
2019-03-20T08:58:47.632Z,100332.30
2019-03-20T09:01:27.845Z,100332.61
2019-03-20T09:03:47.609Z,100334.80
2019-03-20T09:06:16.808Z,100331.52
2019-03-20T09:08:45.893Z,100337.97
2019-03-20T09:11:15.080Z,100338.95
2019-03-20T09:13:44.208Z,100340.70
2019-03-20T09:16:13.374Z,100345.13
2019-03-20T09:18:42.856Z,100338.41
2019-03-20T09:21:12.026Z,100349.20
2019-03-20T09:23:41.204Z,100341.31
2019-03-20T09:26:10.421Z,100346.47
2019-03-20T09:28:39.610Z,100341.22
2019-03-20T09:31:08.741Z,100340.83
2019-03-20T09:33:38.111Z,100340.48
2019-03-20T09:36:07.254Z,100336.03
2019-03-20T09:38:43.465Z,100332.41
2019-03-20T09:41:07.236Z,100331.17
2019-03-20T09:43:36.702Z,100324.70
2019-03-20T09:46:05.972Z,100325.95
2019-03-20T09:48:35.105Z,100330.09
2019-03-20T09:51:04.221Z,100333.84
2019-03-20T09:53:33.354Z,100329.75
2019-03-20T09:56:02.836Z,100336.50
2019-03-20T09:58:31.953Z,100339.19
2019-03-20T10:01:01.185Z,100343.66
2019-03-20T10:03:30.348Z,100340.54
2019-03-20T10:05:59.472Z,100345.06
2019-03-20T10:08:28.957Z,100333.53
2019-03-20T10:10:58.032Z,100334.95
2019-03-20T10:13:27.072Z,100336.14
2019-03-20T10:15:56.197Z,100336.09
2019-03-20T10:18:25.163Z,100334.43
2019-03-20T10:20:54.264Z,100329.63
2019-03-20T10:23:23.291Z,100336.23
2019-03-20T10:25:52.427Z,100330.71
2019-03-20T10:28:21.553Z,100331.92
2019-03-20T10:30:50.970Z,100325.45
2019-03-20T10:33:20.184Z,100322.17
2019-03-20T10:35:50.584Z,100327.77
2019-03-20T10:38:20.033Z,100326.11
2019-03-20T10:40:49.230Z,100326.11
2019-03-20T10:43:18.410Z,100333.34
2019-03-20T10:45:47.822Z,100329.07
2019-03-20T10:48:16.956Z,100328.83
2019-03-20T10:50:46.141Z,100337.23
2019-03-20T10:53:15.302Z,100337.66
2019-03-20T10:55:44.495Z,100338.23
2019-03-20T10:58:13.719Z,100326.31
2019-03-20T11:00:42.898Z,100326.31
2019-03-20T11:03:12.089Z,100318.58
2019-03-20T11:05:41.292Z,100327.56
2019-03-20T11:08:12.876Z,100325.16
2019-03-20T11:10:41.186Z,100323.52
2019-03-20T11:13:13.513Z,100319.16
2019-03-20T11:15:42.620Z,100321.45
2019-03-20T11:18:11.771Z,100331.34
2019-03-20T11:20:42.192Z,100329.70
2019-03-20T11:23:18.185Z,100321.05
2019-03-20T11:25:49.971Z,100320.82
2019-03-20T11:28:21.309Z,100320.82
2019-03-20T11:31:23.998Z,100336.08
2019-03-20T11:34:26.493Z,100336.08
2019-03-20T11:41:01.056Z,100335.12
2019-03-20T11:43:34.636Z,100337.97
2019-03-20T11:46:06.606Z,100340.80
2019-03-20T11:48:35.717Z,100338.95
2019-03-20T11:51:04.908Z,100328.55
2019-03-20T11:53:34.212Z,100325.75
2019-03-20T11:56:03.402Z,100330.48
2019-03-20T11:58:32.537Z,100331.64
2019-03-20T12:01:04.960Z,100324.17
2019-03-20T12:03:34.361Z,100323.86
2019-03-20T12:06:03.498Z,100309.05
2019-03-20T12:08:32.583Z,100309.05
2019-03-20T12:11:01.735Z,100314.39
2019-03-20T12:13:30.974Z,100323.18
2019-03-20T12:16:00.126Z,100315.21
2019-03-20T12:18:29.330Z,100318.97
2019-03-20T12:20:58.517Z,100317.53
2019-03-20T12:23:28.139Z,100301.52
2019-03-20T12:26:10.386Z,100312.10
2019-03-20T12:28:39.621Z,100305.66
2019-03-20T12:31:15.552Z,100306.92
2019-03-20T12:33:50.270Z,100307.05
2019-03-20T12:36:27.311Z,100310.72
2019-03-20T12:39:00.879Z,100302.78
2019-03-20T12:41:32.697Z,100299.81
2019-03-20T12:44:04.878Z,100314.46
2019-03-20T12:46:41.727Z,100307.83
2019-03-20T12:49:11.080Z,100312.00
2019-03-20T12:51:42.165Z,100309.77
2019-03-20T12:54:14.353Z,100307.61
2019-03-20T12:56:54.495Z,100308.00
2019-03-20T13:02:20.005Z,100292.91
2019-03-20T13:04:51.306Z,100291.97
2019-03-20T13:07:23.753Z,100296.79
2019-03-20T13:09:59.568Z,100295.75
2019-03-20T13:12:25.903Z,100296.47
2019-03-20T13:15:33.432Z,100295.53
2019-03-20T13:18:08.406Z,100291.11
2019-03-20T13:20:37.579Z,100282.38
2019-03-20T13:23:11.306Z,100288.95
2019-03-20T13:25:42.318Z,100296.86
2019-03-20T13:28:13.980Z,100302.44
2019-03-20T13:30:49.766Z,100308.42
2019-03-20T13:33:25.815Z,100310.72
2019-03-20T13:35:50.580Z,100308.63
2019-03-20T13:38:19.609Z,100300.53
2019-03-20T13:40:48.877Z,100295.69
2019-03-20T13:43:18.023Z,100296.72
2019-03-20T13:45:47.298Z,100287.33
2019-03-20T13:48:16.400Z,100282.31
2019-03-20T13:50:48.213Z,100287.18
2019-03-20T13:53:17.369Z,100277.08
2019-03-20T13:55:46.683Z,100290.91
2019-03-20T13:58:19.122Z,100277.42
2019-03-20T14:00:50.774Z,100279.59
2019-03-20T14:03:19.886Z,100272.91
2019-03-20T14:05:49.354Z,100272.02
2019-03-20T14:08:20.024Z,100263.29
2019-03-20T14:10:50.852Z,100264.76
2019-03-20T14:13:21.196Z,100272.92
2019-03-20T14:15:50.364Z,100277.31
2019-03-20T14:18:19.526Z,100275.49
2019-03-20T14:20:48.798Z,100280.19
2019-03-20T14:23:18.168Z,100276.06
2019-03-20T14:25:47.463Z,100271.81
2019-03-20T14:29:11.990Z,100277.67
2019-03-20T14:31:41.211Z,100278.98
2019-03-20T14:34:10.360Z,100276.83
2019-03-20T14:36:39.499Z,100269.38
2019-03-20T14:39:09.123Z,100276.83
2019-03-20T14:41:38.274Z,100273.00
2019-03-20T14:44:07.501Z,100273.08
2019-03-20T14:46:36.638Z,100275.69
2019-03-20T14:49:05.830Z,100268.94
2019-03-20T14:51:34.941Z,100266.19
2019-03-20T14:54:04.612Z,100267.59
2019-03-20T14:56:33.738Z,100267.26
2019-03-20T14:59:02.917Z,100268.38
2019-03-20T15:01:32.026Z,100272.16
2019-03-20T15:04:03.924Z,100270.94
2019-03-20T15:06:33.073Z,100270.61
2019-03-20T15:09:02.177Z,100270.98
2019-03-20T15:11:34.128Z,100267.87
2019-03-20T15:14:03.383Z,100270.14
2019-03-20T15:16:42.038Z,100258.55
2019-03-20T15:19:11.187Z,100255.75
2019-03-20T15:21:40.396Z,100249.53
2019-03-20T15:24:09.537Z,100250.17
2019-03-20T15:26:38.948Z,100250.91
2019-03-20T15:29:08.466Z,100247.86
2019-03-20T15:31:40.827Z,100254.91
2019-03-20T15:34:11.029Z,100247.01
2019-03-20T15:36:40.207Z,100254.13
2019-03-20T15:39:09.343Z,100239.99
2019-03-20T15:41:38.539Z,100238.66
2019-03-20T15:44:07.742Z,100238.84
2019-03-20T15:46:36.987Z,100232.33
2019-03-20T15:49:06.412Z,100230.59
2019-03-20T15:51:36.056Z,100237.20
2019-03-20T15:54:05.356Z,100237.25
2019-03-20T15:56:34.856Z,100232.91
2019-03-20T15:59:03.959Z,100239.23
2019-03-20T16:01:33.111Z,100236.34
2019-03-20T16:04:02.325Z,100241.02
2019-03-20T16:06:31.547Z,100244.68
2019-03-20T16:09:00.630Z,100241.49
2019-03-20T16:11:29.837Z,100238.10
2019-03-20T16:13:58.981Z,100240.43
2019-03-20T16:16:31.250Z,100236.63
2019-03-20T16:19:03.483Z,100243.58
2019-03-20T16:21:33.024Z,100245.52
2019-03-20T16:24:02.148Z,100248.70
2019-03-20T16:26:31.346Z,100243.41
2019-03-20T16:29:00.546Z,100242.07
2019-03-20T16:31:29.951Z,100244.72
2019-03-20T16:33:59.115Z,100244.69
2019-03-20T16:36:28.274Z,100247.37
2019-03-20T16:38:57.628Z,100247.48
2019-03-20T16:41:26.819Z,100247.97
2019-03-20T16:43:55.955Z,100245.58
2019-03-20T16:46:26.209Z,100249.08
2019-03-20T16:48:55.370Z,100247.37
2019-03-20T16:51:24.524Z,100245.53
2019-03-20T16:53:53.589Z,100256.64
2019-03-20T16:56:22.914Z,100253.69
2019-03-20T16:58:52.011Z,100259.20
2019-03-20T17:01:21.122Z,100258.65
2019-03-20T17:03:50.316Z,100258.31
2019-03-20T17:06:19.523Z,100260.13
2019-03-20T17:08:48.747Z,100267.82
2019-03-20T17:11:27.413Z,100270.83
2019-03-20T17:13:48.931Z,100280.30
2019-03-20T17:16:20.230Z,100283.88
2019-03-20T17:21:49.346Z,100296.72
2019-03-20T17:24:20.620Z,100302.00
2019-03-20T17:26:50.855Z,100307.57
2019-03-20T17:29:21.281Z,100301.44
2019-03-20T17:31:50.319Z,100300.42
2019-03-20T17:34:19.533Z,100298.86
2019-03-20T17:36:50.831Z,100302.83
2019-03-20T17:39:20.143Z,100309.17
2019-03-20T17:41:49.322Z,100305.77
2019-03-20T17:44:26.797Z,100306.97
2019-03-20T17:46:55.948Z,100306.97
2019-03-20T17:49:25.169Z,100307.48
2019-03-20T17:51:57.137Z,100312.88
2019-03-20T17:54:29.013Z,100319.13
2019-03-20T17:57:00.542Z,100313.89
2019-03-20T17:59:30.124Z,100312.67
2019-03-20T18:01:59.219Z,100321.34
2019-03-20T18:04:30.413Z,100326.34
2019-03-20T18:07:02.892Z,100322.25
2019-03-20T18:09:34.044Z,100322.77
2019-03-20T18:12:05.215Z,100322.77
2019-03-20T18:14:34.524Z,100323.80
2019-03-20T18:17:03.644Z,100324.66
2019-03-20T18:19:51.996Z,100320.61
2019-03-20T18:22:21.085Z,100322.15
2019-03-20T18:24:50.131Z,100325.63
2019-03-20T18:27:19.244Z,100330.12
2019-03-20T18:29:48.289Z,100333.81
2019-03-20T18:32:17.436Z,100336.14
2019-03-20T18:34:46.522Z,100339.61
2019-03-20T18:37:15.636Z,100341.22
2019-03-20T18:39:45.199Z,100343.34
2019-03-20T18:42:14.349Z,100349.50
2019-03-20T18:44:43.604Z,100354.81
2019-03-20T18:47:12.698Z,100351.56
2019-03-20T18:49:41.891Z,100355.46
2019-03-20T18:52:10.967Z,100348.84
2019-03-20T18:54:40.426Z,100350.26
2019-03-20T18:57:09.597Z,100357.27
2019-03-20T18:59:38.753Z,100357.61
2019-03-20T19:02:07.897Z,100362.00
2019-03-20T19:04:37.080Z,100354.84
2019-03-20T19:07:06.306Z,100354.84
2019-03-20T19:09:35.505Z,100371.07
2019-03-20T19:12:08.761Z,100344.27
2019-03-20T19:14:35.558Z,100365.70
2019-03-20T19:17:04.643Z,100360.50
2019-03-20T19:19:33.746Z,100360.50
2019-03-20T19:22:03.011Z,100368.48
2019-03-20T19:24:32.030Z,100381.06
2019-03-20T19:27:01.253Z,100374.20
2019-03-20T19:29:30.668Z,100381.53
2019-03-20T19:31:59.842Z,100377.81
2019-03-20T19:34:28.898Z,100378.59
2019-03-20T19:36:58.026Z,100374.48
2019-03-20T19:39:27.135Z,100376.37
2019-03-20T19:41:56.239Z,100375.73
2019-03-20T19:44:25.580Z,100378.27
2019-03-20T19:46:54.668Z,100379.00
2019-03-20T19:49:26.575Z,100377.42
2019-03-20T19:51:55.731Z,100377.61
2019-03-20T19:54:24.859Z,100380.66
2019-03-20T19:56:54.035Z,100369.92
2019-03-20T19:59:23.155Z,100369.92
2019-03-20T20:01:52.285Z,100369.88
2019-03-20T20:04:21.452Z,100378.91
2019-03-20T20:06:51.062Z,100378.91
2019-03-20T20:09:20.257Z,100375.56
2019-03-20T20:11:49.429Z,100372.42
2019-03-20T20:14:18.642Z,100377.45
2019-03-20T20:16:47.813Z,100370.07
2019-03-20T20:19:17.005Z,100368.92
2019-03-20T20:21:46.269Z,100376.93
2019-03-20T20:24:15.290Z,100377.55
2019-03-20T20:26:44.444Z,100376.61
2019-03-20T20:29:13.559Z,100373.62
2019-03-20T20:31:42.854Z,100375.09
2019-03-20T20:34:12.016Z,100368.30
2019-03-20T20:36:41.091Z,100380.19
2019-03-20T20:39:10.202Z,100379.00
2019-03-20T20:41:39.482Z,100379.09
2019-03-20T20:44:08.551Z,100372.95
2019-03-20T20:46:37.698Z,100370.45
2019-03-20T20:49:06.881Z,100370.45
2019-03-20T20:51:35.977Z,100370.49
2019-03-20T20:54:05.038Z,100377.44
2019-03-20T20:56:34.170Z,100377.06
2019-03-20T20:59:03.309Z,100380.39
2019-03-20T21:01:32.493Z,100385.05
2019-03-20T21:04:01.559Z,100384.53
2019-03-20T21:06:30.648Z,100382.28
2019-03-20T21:08:59.718Z,100386.09
2019-03-20T21:11:28.816Z,100379.14
2019-03-20T21:13:57.814Z,100384.80
2019-03-20T21:16:27.951Z,100384.80
2019-03-20T21:19:33.367Z,100385.33
2019-03-20T21:22:44.539Z,100384.67
2019-03-20T21:25:15.375Z,100376.38
2019-03-20T21:28:31.412Z,100378.72
2019-03-20T21:31:33.061Z,100382.39
2019-03-20T21:34:31.540Z,100363.78
2019-03-20T21:37:45.182Z,100363.78
2019-03-20T21:40:16.464Z,100370.19
2019-03-20T21:43:21.316Z,100370.19
2019-03-20T21:46:32.233Z,100376.70
2019-03-20T21:49:01.864Z,100376.70
2019-03-20T21:51:31.431Z,100383.05
2019-03-20T21:54:42.092Z,100386.10
2019-03-20T21:57:47.067Z,100389.56
2019-03-20T22:01:15.532Z,100382.50
2019-03-20T22:03:45.185Z,100385.48
2019-03-20T22:06:51.057Z,100385.30
2019-03-20T22:09:48.253Z,100394.55
2019-03-20T22:12:35.255Z,100397.72
2019-03-20T22:15:15.994Z,100391.20
2019-03-20T22:18:26.129Z,100390.09
2019-03-20T22:21:18.606Z,100392.91
2019-03-20T22:24:15.227Z,100402.94
2019-03-20T22:27:23.778Z,100400.11
2019-03-20T22:29:53.353Z,100397.48
2019-03-20T22:33:11.337Z,100394.89
2019-03-20T22:35:59.657Z,100398.09
2019-03-20T22:39:25.246Z,100395.61
2019-03-20T22:42:25.745Z,100401.47
2019-03-20T22:45:04.728Z,100407.06
2019-03-20T22:48:03.344Z,100409.02
2019-03-20T22:50:52.578Z,100407.20
2019-03-20T22:53:47.733Z,100401.11
2019-03-20T22:56:53.271Z,100403.69
2019-03-20T22:59:22.881Z,100405.67
2019-03-20T23:02:05.591Z,100411.69
2019-03-20T23:04:38.146Z,100412.03
2019-03-20T23:07:10.374Z,100414.53
2019-03-20T23:09:39.081Z,100414.92
2019-03-20T23:12:11.796Z,100422.47
2019-03-20T23:14:41.455Z,100420.13
2019-03-20T23:17:11.122Z,100416.55
2019-03-20T23:19:41.545Z,100426.38
2019-03-20T23:22:11.690Z,100428.95
2019-03-20T23:24:41.364Z,100426.83
2019-03-20T23:27:14.764Z,100428.70
2019-03-20T23:29:44.371Z,100429.17
2019-03-20T23:32:14.106Z,100432.70
2019-03-20T23:34:43.667Z,100438.37
2019-03-20T23:37:13.318Z,100440.09
2019-03-20T23:39:42.948Z,100436.55
2019-03-20T23:42:12.512Z,100439.74
2019-03-20T23:44:42.154Z,100443.83
2019-03-20T23:47:11.801Z,100445.61
2019-03-20T23:49:41.418Z,100456.14
2019-03-20T23:52:11.030Z,100448.80
2019-03-20T23:54:49.979Z,100452.45
2019-03-20T23:57:20.138Z,100460.52
2019-03-20T23:59:50.298Z,100458.94
